Glen Alpine, North Carolina
Current Conditions -  °F | °C
As of 3:55 AM on Friday 24 Oct 2014 (Local Time) from KMRN Reporting Station
Clear Clear  
Wind Chill: 41°   Ceiling: Unl
Heat Index: 41°   Visibility: 7mi
Dew Point: 41°   Wind: 0mph
Humidity: 99%   Direction: NA
Pressure: 30.09"   Gusts: NA
Location:  35.73°N, 81.78°W
Report Text: KMRN 240755Z AUTO 00000KT 7SM CLR 05/05 A3009 RMK AO2 T00500048
Loading
Personal Weather Stations






























Interactive Weather Map
Tropical Storm Tracking
New forecast layout! Learn more

10-Day Weather Forecast

Advertisements
Track Severe Weather on mobile